»·PEaware :: WAT169 KSNA-KLAS

WAT169 :: KSNA-KLAS

FLIGHT INFORMATION

Flight Status: Arrived
Operator:
Walker Air Transport
More flights by this operator :: More flights under this callsign
Pilot: Marty P. (27464)
Aircraft: BOEING 737-800
(B738)
More flights by this aircraft type
Origin: KSNA John Wayne-Orange Co
United States
Destination: KLAS McCarran Intl
United States
More flights between these airports :: More routes between these airports
Route: FINZZ3 MISEN KEPEC6
File this flight plan on PilotEdge
Remarks:
Altitude:
(Current/Filed)
27,000ft
Speed:
(Current/Filed)
480kts
Departed: 18-Oct-20 08:14 AM
Arrived: 18-Oct-20 08:57 AM
Distance/Time
Traveled:
197nm/0:43
Distance/Time
To Go:
Arrived

Flight Plot

Page will automatically refresh every two minutes.

Flight plan parsing failed; only flown route is shown


Map Options




Map Legend


Flown Route
Filed Route
Departure Airport
Arrival Airport
Navaid (VOR, NDB)
Fix

Horizontal Profiles

Position Reports

Time Latitude Longitude Heading Altitude Ground
Speed
18-Oct-20 07:54 33.675005 -117.865072 118 66ft 0kts
18-Oct-20 07:54 33.675005 -117.865072 118 66ft 0kts
18-Oct-20 07:55 33.675005 -117.865072 118 66ft 0kts
18-Oct-20 07:56 33.675005 -117.865072 118 66ft 0kts
18-Oct-20 07:57 33.675005 -117.865072 118 66ft 0kts
18-Oct-20 07:58 33.675005 -117.865072 118 66ft 0kts
18-Oct-20 07:59 33.675005 -117.865072 118 66ft 0kts
18-Oct-20 08:00 33.675005 -117.865072 118 66ft 0kts
18-Oct-20 08:01 33.675005 -117.865072 118 66ft 0kts
18-Oct-20 08:02 33.675005 -117.865073 118 66ft 0kts
18-Oct-20 08:03 33.675005 -117.865073 118 66ft 0kts
18-Oct-20 08:04 33.675005 -117.865073 118 66ft 0kts
18-Oct-20 08:05 33.675005 -117.865073 118 66ft 0kts
18-Oct-20 08:06 33.675109 -117.865306 118 66ft 0kts
18-Oct-20 08:07 33.675009 -117.865906 34 66ft 2kts
18-Oct-20 08:08 33.674919 -117.865966 27 66ft 0kts
18-Oct-20 08:09 33.674921 -117.865965 27 66ft 0kts
18-Oct-20 08:10 33.677673 -117.864204 27 66ft 17kts
18-Oct-20 08:11 33.680618 -117.863028 301 66ft 0kts
18-Oct-20 08:12 33.681012 -117.863891 297 66ft 15kts
18-Oct-20 08:13 33.666820 -117.874639 210 305ft 157kts
18-Oct-20 08:14 33.615960 -117.893777 184 2547ft 236kts
18-Oct-20 08:15 33.552005 -117.920320 219 5832ft 264kts
18-Oct-20 08:16 33.507860 -117.986046 260 9678ft 251kts
18-Oct-20 08:17 33.533097 -118.070227 314 11379ft 333kts
18-Oct-20 08:18 33.626823 -118.102587 12 13812ft 387kts
18-Oct-20 08:19 33.725962 -118.050354 24 16561ft 409kts
18-Oct-20 08:20 33.828727 -117.990276 24 19044ft 425kts
18-Oct-20 08:21 33.931716 -117.917289 33 21255ft 441kts
18-Oct-20 08:22 34.031966 -117.828709 36 23232ft 455kts
18-Oct-20 08:23 34.122983 -117.719707 46 24952ft 471kts
18-Oct-20 08:24 34.209256 -117.597671 48 26533ft 483kts
18-Oct-20 08:25 34.296819 -117.469065 49 27117ft 513kts
18-Oct-20 08:26 34.389073 -117.331307 50 27121ft 531kts
18-Oct-20 08:27 34.477235 -117.199187 50 27133ft 500kts
18-Oct-20 08:28 34.564929 -117.067962 49 27134ft 500kts
18-Oct-20 08:29 34.654150 -116.938075 49 27102ft 500kts
18-Oct-20 08:30 34.743295 -116.807964 49 27082ft 501kts
18-Oct-20 08:31 34.832955 -116.678459 44 27080ft 500kts
18-Oct-20 08:32 34.936391 -116.565767 37 27083ft 498kts
18-Oct-20 08:33 35.042957 -116.461981 37 25577ft 483kts
18-Oct-20 08:34 35.139800 -116.356096 43 23590ft 466kts
18-Oct-20 08:35 35.229356 -116.244667 44 21577ft 453kts
18-Oct-20 08:36 35.316015 -116.136091 44 19578ft 442kts
18-Oct-20 08:37 35.400696 -116.029436 44 17573ft 432kts
18-Oct-20 08:38 35.482155 -115.926439 44 15565ft 405kts
18-Oct-20 08:39 35.556864 -115.831639 44 14066ft 365kts
18-Oct-20 08:40 35.623293 -115.747061 44 13332ft 321kts
18-Oct-20 08:41 35.683792 -115.669834 44 13012ft 314kts
18-Oct-20 08:42 35.747212 -115.596239 28 13008ft 312kts
18-Oct-20 08:43 35.829749 -115.571321 0 13010ft 307kts
18-Oct-20 08:44 35.915145 -115.566692 0 12997ft 307kts
18-Oct-20 08:45 35.985401 -115.515748 60 12213ft 307kts
18-Oct-20 08:46 36.016237 -115.422450 67 10978ft 277kts
18-Oct-20 08:47 36.027963 -115.327130 94 10231ft 287kts
18-Oct-20 08:48 36.020898 -115.234392 94 8197ft 253kts
18-Oct-20 08:49 36.015802 -115.162094 93 8014ft 184kts
18-Oct-20 08:50 36.012207 -115.098227 77 7969ft 187kts
18-Oct-20 08:51 36.052832 -115.064052 15 6130ft 185kts
18-Oct-20 08:52 36.099138 -115.041591 20 5332ft 183kts
18-Oct-20 08:53 36.128226 -115.074514 282 3780ft 156kts
18-Oct-20 08:54 36.129900 -115.125921 225 3021ft 152kts
18-Oct-20 08:55 36.095089 -115.155527 203 2106ft 150kts
18-Oct-20 08:56 36.081743 -115.162456 125 2149ft 13kts
18-Oct-20 08:57 36.081621 -115.157755 89 2135ft 25kts
18-Oct-20 08:58 36.081021 -115.149833 89 2108ft 18kts

Navigation Log

Ident Type
Flight plan parsing failed, navigation log unavailable